Latest Weather Observations for Montague Island

IDN60801

Issued at 7:32 pm EDT Wednesday 22 February 2017 (issued every 30 minutes, with the page automatically refreshed every 10 minutes)

About weather observations | Map of weather stations | Latest weather observations for NSW | Other Formats
Station Details ID: 069017 Name: MONTAGUE ISLAND LIGHTHOUSE Lat: -36.25 Lon: 150.23 Height: 52.0 m
Data from the previous 72 hours. | See also: Recent months at Montague Island
Date/Time
EDT
Temp
°C
App
Temp
°C
Dew
Point
°C
Rel
Hum
%
Delta-T
°C
Wind Press
QNH
hPa
Press
MSL
hPa
Rain since
9am
mm
Dir  Spd
km/h
Gust
km/h
Spd
kts
Gust
kts
22/07:30pm 23.2 20.0 20.3 84 1.9 NNE 37 46 20 25 1014.6 1014.4 0.0
22/07:00pm 23.3 20.2 20.4 84 1.9 NNE 37 44 20 24 1014.5 1014.3 0.0
22/06:30pm 23.3 20.6 20.4 84 1.9 NNE 35 44 19 24 1014.4 1014.2 0.0
22/06:00pm 23.6 21.2 20.3 82 2.1 NNE 33 43 18 23 1014.5 1014.3 0.0
22/05:30pm 23.9 21.3 19.8 78 2.6 NNE 33 43 18 23 1014.6 1014.4 0.0
22/05:00pm 24.1 21.0 19.6 76 2.9 NNE 35 46 19 25 1014.6 1014.4 0.0
22/04:30pm 24.3 20.2 18.2 68 3.8 NNE 37 48 20 26 1014.6 1014.4 0.0
22/04:00pm 24.6 20.5 18.3 68 4.0 NNE 37 46 20 25 1014.7 1014.5 0.0
22/03:30pm 24.7 20.8 17.9 66 4.3 NNE 35 44 19 24 1015.0 1014.8 0.0
22/03:00pm 24.7 21.3 18.2 67 4.1 NNE 33 43 18 23 1015.4 1015.2 0.0
22/02:30pm 24.8 21.5 18.3 67 4.1 NNE 33 43 18 23 1016.0 1015.8 0.0
22/02:00pm 24.4 21.6 18.3 69 3.8 NE 30 39 16 21 1016.4 1016.2 0.0
22/01:30pm 24.2 21.9 18.4 70 3.7 NE 28 35 15 19 1016.9 1016.7 0.0
22/01:00pm 24.0 21.9 18.0 69 3.8 NNE 26 32 14 17 1017.3 1017.1 0.0
22/12:30pm 23.9 21.9 18.3 71 3.5 NNE 26 30 14 16 1017.9 1017.7 0.0
22/12:00pm 23.6 22.1 17.6 69 3.7 NNE 22 28 12 15 1018.3 1018.1 0.0
22/11:30am 23.3 22.3 18.0 72 3.3 NNE 20 24 11 13 1018.6 1018.4 0.0
22/11:00am 23.0 22.2 17.9 73 3.2 NNE 19 24 10 13 1019.2 1019.0 0.0
22/10:30am 22.7 22.2 17.8 74 3.1 NNE 17 22 9 12 1019.6 1019.4 0.0
22/10:00am 22.2 22.2 17.3 74 3.0 N 13 19 7 10 1019.9 1019.7 0.0
22/09:30am 21.8 21.9 17.4 76 2.7 N 13 17 7 9 1020.0 1019.8 0.0
22/09:00am 21.0 21.0 17.2 79 2.3 NNW 13 17 7 9 1019.9 1019.7 0.0
22/08:30am 20.0 20.0 16.2 79 2.3 NNW 11 15 6 8 1020.1 1019.9 0.0
22/08:00am 19.7 19.7 16.3 81 2.0 NNW 11 13 6 7 1019.9 1019.7 0.0
22/07:30am 19.6 20.3 17.0 85 1.6 NNW 9 13 5 7 1019.7 1019.5 0.0
22/07:00am 19.5 20.1 16.9 85 1.6 NNW 9 13 5 7 1019.4 1019.2 0.0
22/06:30am 19.4 20.6 16.8 85 1.6 N 6 9 3 5 1019.1 1018.9 0.0
22/06:00am 19.4 21.3 16.6 84 1.7 SSE 2 4 1 2 1018.9 1018.7 0.0
22/05:30am 19.2 21.3 16.2 83 1.8 CALM 0 2 0 1 1018.8 1018.6 0.0
22/05:00am 19.3 20.7 16.3 83 1.8 SSW 4 6 2 3 1018.8 1018.6 0.0
22/04:30am 19.3 20.2 16.2 82 1.9 SW 6 7 3 4 1018.8 1018.6 0.0
22/04:00am 19.5 20.2 16.2 81 2.0 WSW 7 11 4 6 1019.0 1018.8 0.0
22/03:30am 19.6 19.9 16.1 80 2.1 WSW 9 13 5 7 1019.1 1018.9 0.0
22/03:00am 19.8 19.7 16.1 79 2.2 WSW 11 13 6 7 1019.4 1019.2 0.0
22/02:30am 20.3 20.8 16.5 79 2.3 WSW 9 13 5 7 1019.6 1019.4 0.0
22/02:00am 20.9 21.5 16.7 77 2.5 WNW 9 13 5 7 1019.7 1019.5 0.0
22/01:30am 21.7 22.0 17.9 79 2.4 NE 13 17 7 9 1020.0 1019.8 0.0
22/01:00am 21.6 21.6 17.2 76 2.7 NE 13 17 7 9 1020.6 1020.4 0.0
22/12:30am 21.4 21.6 16.8 75 2.8 NE 11 15 6 8 1021.0 1020.8 0.0
22/12:00am 21.4 21.0 16.1 72 3.2 NE 13 17 7 9 1021.4 1021.2 0.0
 
Date/Time
EDT
Temp
°C
App
Temp
°C
Dew
Point
°C
Rel
Hum
%
Delta-T
°C
Wind Press
QNH
hPa
Press
MSL
hPa
Rain since
9am
mm
Dir  Spd
km/h
Gust
km/h
Spd
kts
Gust
kts
21/11:30pm 21.3 20.7 15.6 70 3.4 NE 13 17 7 9 1021.6 1021.4 0.0
21/11:00pm 21.3 20.2 15.4 69 3.5 NE 15 19 8 10 1021.7 1021.5 0.0
21/10:30pm 21.2 20.4 15.1 68 3.6 NE 13 20 7 11 1021.7 1021.5 0.0
21/10:00pm 21.2 20.1 15.3 69 3.5 NE 15 20 8 11 1021.7 1021.5 0.0
21/09:30pm 21.2 19.5 14.8 67 3.8 NE 17 20 9 11 1021.6 1021.4 0.0
21/09:00pm 21.1 19.3 14.5 66 3.9 ENE 17 19 9 10 1021.5 1021.3 0.0
21/08:30pm 20.9 19.4 14.3 66 3.9 ENE 15 19 8 10 1021.2 1021.0 0.0
21/08:00pm 20.7 19.5 13.9 65 3.9 E 13 17 7 9 1021.1 1020.9 0.0
21/07:30pm 20.7 19.5 13.9 65 3.9 E 13 17 7 9 1020.9 1020.7 0.0
21/07:00pm 20.6 19.5 13.1 62 4.3 ENE 11 15 6 8 1020.6 1020.4 0.0
21/06:30pm 20.7 19.0 12.4 59 4.7 ENE 13 17 7 9 1020.3 1020.1 0.0
21/06:00pm 20.9 18.9 11.5 55 5.2 ENE 13 19 7 10 1020.1 1019.9 0.0
21/05:30pm 21.1 19.3 12.0 56 5.1 E 13 17 7 9 1020.0 1019.8 0.0
21/05:00pm 21.2 18.8 11.5 54 5.4 E 15 19 8 10 1020.0 1019.8 0.0
21/04:30pm 21.1 18.8 11.7 55 5.2 E 15 19 8 10 1019.9 1019.7 0.0
21/04:00pm 21.4 18.7 12.8 58 4.9 E 19 20 10 11 1019.7 1019.5 0.0
21/03:30pm 21.4 18.4 12.0 55 5.3 E 19 22 10 12 1019.7 1019.5 0.0
21/03:00pm 21.6 18.8 12.5 56 5.2 E 19 24 10 13 1019.7 1019.5 0.0
21/02:30pm 21.6 18.7 12.2 55 5.3 E 19 22 10 12 1020.1 1019.9 0.0
21/02:00pm 21.0 18.0 11.9 56 5.1 E 19 22 10 12 1020.4 1020.2 0.0
21/01:30pm 21.5 18.8 11.8 54 5.4 E 17 19 9 10 1020.4 1020.2 0.0
21/01:00pm 21.3 18.7 13.2 60 4.6 E 19 22 10 12 1020.7 1020.5 0.0
21/12:30pm 21.2 19.4 12.1 56 5.1 E 13 20 7 11 1020.7 1020.5 0.0
21/12:00pm 20.5 18.1 11.4 56 5.0 E 15 20 8 11 1021.1 1020.9 0.0
21/11:30am 21.0 19.2 12.2 57 5.0 SE 13 19 7 10 1021.1 1020.9 0.0
21/11:00am 21.1 19.2 11.7 55 5.2 SSE 13 17 7 9 1021.1 1020.9 0.0
21/10:30am 20.3 19.2 13.0 63 4.2 SSW 11 15 6 8 1021.2 1021.0 0.0
21/10:00am 19.8 18.1 12.3 62 4.2 S 13 17 7 9 1020.9 1020.7 0.0
21/09:30am 19.1 17.3 12.1 64 3.9 SSW 13 17 7 9 1020.7 1020.5 0.0
21/09:00am 18.6 16.7 11.9 65 3.7 SSW 13 17 7 9 1020.6 1020.4 0.0
21/08:30am 18.1 16.2 11.9 67 3.4 SSW 13 17 7 9 1020.2 1020.0 0.0
21/08:00am 17.7 15.7 11.5 67 3.4 SW 13 17 7 9 1019.8 1019.6 0.0
21/07:30am 17.5 15.2 8.9 57 4.5 SW 11 15 6 8 1019.3 1019.1 0.0
21/07:00am 16.7 14.8 9.1 61 3.9 SW 9 13 5 7 1018.9 1018.7 0.0
21/06:30am 16.3 14.4 10.4 68 3.1 SW 11 15 6 8 1018.6 1018.4 0.0
21/06:00am 16.5 15.0 10.6 68 3.1 SW 9 13 5 7 1018.3 1018.1 0.0
21/05:30am 16.9 15.3 10.1 64 3.6 SSW 9 13 5 7 1017.8 1017.6 0.0
21/05:00am 16.8 15.3 10.6 67 3.3 SSW 9 13 5 7 1017.4 1017.2 0.0
21/04:30am 17.3 15.9 10.9 66 3.4 SSW 9 13 5 7 1017.3 1017.1 0.0
21/04:00am 17.2 16.1 12.1 72 2.8 SW 9 13 5 7 1017.3 1017.1 0.0
21/03:30am 17.3 15.9 9.0 58 4.3 SSW 6 11 3 6 1017.4 1017.2 0.0
21/03:00am 17.3 15.4 9.2 59 4.2 WSW 9 13 5 7 1017.2 1017.0 0.0
21/02:30am 17.8 15.2 6.3 47 5.7 W 9 13 5 7 1017.2 1017.0 0.0
21/02:00am 18.1 15.4 7.2 49 5.5 WNW 11 15 6 8 1017.2 1017.0 0.0
21/01:30am 18.6 15.5 7.1 47 5.8 WNW 13 17 7 9 1017.3 1017.1 0.0
21/01:00am 18.8 15.7 7.3 47 5.8 WNW 13 17 7 9 1017.4 1017.2 0.0
21/12:30am 18.6 16.7 9.1 54 5.0 WNW 9 13 5 7 1017.3 1017.1 0.0
21/12:00am 19.4 16.1 6.2 42 6.6 WNW 13 17 7 9 1017.1 1016.9 0.0
 
Date/Time
EDT
Temp
°C
App
Temp
°C
Dew
Point
°C
Rel
Hum
%
Delta-T
°C
Wind Press
QNH
hPa
Press
MSL
hPa
Rain since
9am
mm
Dir  Spd
km/h
Gust
km/h
Spd
kts
Gust
kts
20/11:30pm 19.6 16.9 8.9 50 5.6 NW 13 17 7 9 1016.8 1016.6 0.0
20/11:00pm 19.3 17.0 10.3 56 4.8 WNW 13 17 7 9 1016.4 1016.2 0.0
20/10:30pm 19.8 18.2 10.2 54 5.2 NNW 9 13 5 7 1016.1 1015.9 0.0
20/10:00pm 20.1 18.3 9.4 50 5.7 NE 9 13 5 7 1015.8 1015.6 0.0
20/09:30pm 20.0 18.1 9.0 49 5.8 NE 9 13 5 7 1015.3 1015.1 0.0
20/09:00pm 19.8 17.9 9.1 50 5.6 NE 9 13 5 7 1014.9 1014.7 0.0
20/08:30pm 19.7 17.6 8.1 47 6.0 NNE 9 13 5 7 1014.3 1014.1 0.0
20/08:00pm 19.7 17.6 8.4 48 5.9 NE 9 13 5 7 1013.6 1013.4 0.0
20/07:30pm 19.7 17.6 8.1 47 6.0 NE 9 13 5 7 1012.7 1012.6 0.0
20/07:00pm 19.6 17.1 8.3 48 5.9 ENE 11 13 6 7 1012.1 1012.0 0.0
20/06:30pm 19.7 16.7 7.8 46 6.1 E 13 20 7 11 1011.5 1011.4 0.0
20/06:00pm 20.0 16.7 8.0 46 6.2 ENE 15 19 8 10 1011.0 1010.9 0.0
20/05:30pm 20.3 16.9 7.7 44 6.5 E 15 19 8 10 1010.6 1010.5 0.0
20/05:00pm 20.7 17.3 7.7 43 6.7 E 15 17 8 9 1010.2 1010.0 0.0
20/04:30pm 20.4 16.9 7.4 43 6.7 ENE 15 19 8 10 1009.9 1009.7 0.0
20/04:00pm 20.5 17.1 7.5 43 6.7 E 15 20 8 11 1009.4 1009.2 0.0
20/03:30pm 20.6 16.3 6.9 41 7.0 ENE 19 22 10 12 1009.2 1009.0 0.0
20/03:00pm 21.3 17.5 5.6 36 7.8 ENE 15 19 8 10 1009.1 1008.9 0.0
20/02:30pm 20.8 17.2 6.7 40 7.2 E 15 19 8 10 1009.0 1008.8 0.0
20/02:00pm 20.3 16.8 7.3 43 6.7 E 15 20 8 11 1009.0 1008.8 0.0
20/01:30pm 20.6 16.9 6.5 40 7.1 ENE 15 19 8 10 1008.8 1008.6 0.0
20/01:00pm 20.1 16.4 6.5 41 6.9 ENE 15 19 8 10 1008.6 1008.4 0.0
20/12:30pm 19.2 15.5 4.6 38 7.0 ENE 13 17 7 9 1008.6 1008.4 0.0
20/12:00pm 20.1 16.8 4.6 36 7.5 E 11 15 6 8 1008.7 1008.5 0.0
20/11:30am 19.5 15.7 4.0 36 7.4 E 13 17 7 9 1008.8 1008.6 0.0
20/11:00am 19.1 15.3 3.7 36 7.3 SSE 13 20 7 11 1008.8 1008.6 0.0
20/10:30am 18.8 15.9 2.6 34 7.5 WNW 7 13 4 7 1009.0 1008.8 0.0
20/10:00am 18.6 15.1 3.3 36 7.2 W 11 15 6 8 1008.9 1008.7 0.0
20/09:30am 17.8 13.6 3.7 39 6.6 WNW 15 20 8 11 1009.0 1008.8 0.0
20/09:00am 17.4 12.8 3.7 40 6.4 WNW 17 20 9 11 1008.9 1008.7 0.2
20/08:30am 17.2 13.9 4.5 43 6.0 W 11 15 6 8 1008.8 1008.6 0.2
20/08:00am 16.5 13.5 5.8 49 5.2 WNW 11 17 6 9 1008.7 1008.5 0.2
20/07:30am 16.2 12.9 6.3 52 4.8 W 13 17 7 9 1008.4 1008.2 0.2
20/07:00am 15.0 11.4 6.6 57 4.1 W 15 19 8 10 1008.1 1007.9 0.2
20/06:30am 14.7 11.3 7.5 62 3.6 W 15 19 8 10 1007.8 1007.6 0.2
20/06:00am 14.6 11.9 8.8 68 3.0 W 13 17 7 9 1007.5 1007.3 0.2
20/05:30am 15.0 12.8 10.8 76 2.2 W 13 17 7 9 1007.3 1007.1 0.2
20/05:00am 15.0 13.1 11.8 81 1.7 SW 13 19 7 10 1007.2 1007.0 0.2
20/04:30am 15.2 12.8 11.4 78 2.0 SSW 15 19 8 10 1006.9 1006.7 0.2
20/04:00am 15.5 12.8 11.7 78 2.1 S 17 20 9 11 1006.3 1006.1 0.2
20/03:30am 15.7 12.1 11.9 78 2.1 S 22 30 12 16 1006.8 1006.6 0.2
20/03:00am 15.8 12.0 12.4 80 1.9 S 24 33 13 18 1006.6 1006.4 0.2
20/02:30am 15.9 11.9 13.0 83 1.6 S 26 35 14 19 1006.3 1006.1 0.2
20/02:00am 16.1 11.5 13.4 84 1.5 S 30 35 16 19 1006.3 1006.1 0.2
20/01:30am 16.4 11.6 13.9 85 1.4 S 32 37 17 20 1006.3 1006.1 0.2
20/01:00am 16.8 11.6 13.5 81 1.9 SSE 33 43 18 23 1006.2 1006.0 0.2
20/12:51am 17.7 15.0 14.6 82 1.8 SSW 22 39 12 21 1006.2 1006.0 0.2
20/12:30am 18.6 17.6 14.7 78 2.3 WSW 13 15 7 8 1006.0 1005.8 0.2
20/12:00am 18.5 18.0 14.8 79 2.2 W 11 15 6 8 1006.0 1005.8 0.2
 
Date/Time
EDT
Temp
°C
App
Temp
°C
Dew
Point
°C
Rel
Hum
%
Delta-T
°C
Wind Press
QNH
hPa
Press
MSL
hPa
Rain since
9am
mm
Dir  Spd
km/h
Gust
km/h
Spd
kts
Gust
kts
19/11:30pm 18.8 18.3 14.9 78 2.3 SW 11 13 6 7 1006.0 1005.8 0.2
19/11:00pm 18.9 18.4 14.8 77 2.4 SW 11 15 6 8 1005.6 1005.4 0.2
19/10:30pm 18.9 18.4 15.0 78 2.3 SSE 11 19 6 10 1005.8 1005.6 0.2
19/10:00pm 19.6 18.3 14.8 74 2.8 SW 15 17 8 9 1005.6 1005.4 0.2
19/09:30pm 19.8 19.0 14.0 69 3.4 SW 11 15 6 8 1005.7 1005.5 0.2
19/09:00pm 19.8 19.6 13.0 65 3.9 SW 6 7 3 4 1006.2 1006.0 0.2
19/08:30pm 20.3 20.0 13.3 64 4.0 NE 7 13 4 7 1006.3 1006.1 0.2
19/08:00pm 20.4 20.1 13.4 64 4.0 ENE 7 13 4 7 1006.2 1006.0 0.2

Other Formats:

Comma delimited format used in spreadsheet applications
http://www.bom.gov.au/fwo/IDN60801/IDN60801.94939.axf

JavaScript Object Notation format (JSON) in row-major order
http://www.bom.gov.au/fwo/IDN60801/IDN60801.94939.json